Time;durP1;ratioP1;P1;durP2;ratioP2;P2;SDS_P1;SDS_P2;PMS_P1;PMS_P2;Temp;Humidity;BMP_temperature;BMP_pressure;BME280_temperature;BME280_humidity;BME280_pressure;Samples;Min_cycle;Max_cycle;Signal;HPM_P1;HPM_P2
2020/12/08 00:02:14;;;;;;;21.52;13.35;;;;;;;3.83;100.00;100078.52;1853497;75;938823;-71
2020/12/08 00:04:44;;;;;;;21.17;13.90;;;;;;;3.85;100.00;100078.53;1846257;76;938712;-71
2020/12/08 00:07:14;;;;;;;20.23;13.00;;;;;;;3.95;100.00;100077.80;1853644;75;938758;-71
2020/12/08 00:09:44;;;;;;;20.03;13.20;;;;;;;4.11;100.00;100077.67;1845255;77;938852;-72
2020/12/08 00:12:14;;;;;;;20.85;13.78;;;;;;;3.93;100.00;100082.74;1853170;76;938766;-71
2020/12/08 00:14:44;;;;;;;21.70;14.20;;;;;;;4.00;100.00;100080.06;1845250;77;938725;-71
2020/12/08 00:17:13;;;;;;;24.98;15.00;;;;;;;3.91;100.00;100074.75;1853441;75;938969;-71
2020/12/08 00:19:43;;;;;;;24.70;14.67;;;;;;;3.83;100.00;100079.88;1865188;76;938704;-71
2020/12/08 00:22:13;;;;;;;24.73;15.37;;;;;;;3.72;100.00;100078.14;1833091;77;938928;-71
2020/12/08 00:24:43;;;;;;;25.13;14.60;;;;;;;3.70;100.00;100069.31;1865719;76;938868;-71
2020/12/08 00:27:14;;;;;;;22.93;13.75;;;;;;;3.68;100.00;100075.05;1853642;76;938680;-71
2020/12/08 00:29:44;;;;;;;23.87;13.63;;;;;;;3.57;100.00;100072.77;1845345;76;938677;-71
2020/12/08 00:32:14;;;;;;;21.60;13.83;;;;;;;3.53;100.00;100073.00;1853733;75;938738;-71
2020/12/08 00:34:43;;;;;;;21.68;13.78;;;;;;;3.66;100.00;100073.96;1865957;75;938778;-71
2020/12/08 00:37:13;;;;;;;22.55;13.90;;;;;;;3.47;100.00;100068.52;1831156;76;938822;-71
2020/12/08 00:39:43;;;;;;;19.80;13.27;;;;;;;3.34;100.00;100062.06;1865969;75;938760;-71
2020/12/08 00:42:13;;;;;;;23.00;13.57;;;;;;;3.23;100.00;100056.18;1833208;76;938829;-71
2020/12/08 00:44:43;;;;;;;21.20;13.77;;;;;;;3.21;100.00;100067.41;1865555;76;938761;-71
2020/12/08 00:47:12;;;;;;;20.77;13.70;;;;;;;3.23;100.00;100071.81;1853581;76;938798;-71
2020/12/08 00:49:42;;;;;;;21.90;14.37;;;;;;;3.17;100.00;100072.28;1865904;75;938864;-71
2020/12/08 00:52:12;;;;;;;24.47;14.13;;;;;;;3.24;100.00;100081.17;1832842;77;938963;-71
2020/12/08 00:54:42;;;;;;;26.63;15.30;;;;;;;3.25;100.00;100077.34;1866069;75;938861;-71
2020/12/08 00:57:12;;;;;;;23.57;14.53;;;;;;;3.15;100.00;100074.47;1853607;75;938677;-71
2020/12/08 00:59:41;;;;;;;25.30;14.83;;;;;;;3.18;100.00;100072.04;1843489;76;938905;-71
2020/12/08 01:02:14;;;;;;;22.53;14.40;;;;;;;3.18;100.00;100078.06;1853597;75;938847;-71
2020/12/08 01:04:45;;;;;;;22.10;13.23;;;;;;;3.20;100.00;100075.91;1845585;76;938604;-71
2020/12/08 01:07:16;;;;;;;23.95;14.35;;;;;;;3.40;100.00;100082.17;1852960;76;938879;-71
2020/12/08 01:09:46;;;;;;;20.67;13.53;;;;;;;3.50;100.00;100094.11;1865980;76;939181;-71
2020/12/08 01:12:18;;;;;;;20.57;13.30;;;;;;;3.28;100.00;100085.06;1853910;75;938710;-71
2020/12/08 01:14:47;;;;;;;23.63;13.83;;;;;;;3.16;100.00;100093.44;1842462;76;938872;-71
2020/12/08 01:17:17;;;;;;;24.95;14.40;;;;;;;3.20;100.00;100089.63;1853261;75;938646;-71
2020/12/08 01:19:47;;;;;;;20.87;13.53;;;;;;;3.32;100.00;100087.58;1845378;76;938771;-71
2020/12/08 01:22:17;;;;;;;25.08;15.58;;;;;;;3.31;100.00;100090.56;1854298;75;938724;-71
2020/12/08 01:24:46;;;;;;;25.00;16.30;;;;;;;3.22;100.00;100092.93;1845311;77;938748;-71
2020/12/08 01:27:16;;;;;;;27.77;16.33;;;;;;;3.26;100.00;100094.08;1853656;75;938900;-71
2020/12/08 01:29:46;;;;;;;27.43;16.30;;;;;;;3.32;100.00;100093.61;1866376;75;938746;-71
2020/12/08 01:32:16;;;;;;;27.13;16.12;;;;;;;3.30;100.00;100091.64;1830623;76;938727;-71
2020/12/08 01:34:46;;;;;;;30.67;18.50;;;;;;;3.30;100.00;100091.64;1865916;76;938636;-71
2020/12/08 01:37:16;;;;;;;31.17;16.97;;;;;;;3.37;100.00;100104.11;1831680;77;938810;-71
2020/12/08 01:39:46;;;;;;;28.75;17.82;;;;;;;3.39;100.00;100104.67;1865733;76;938714;-71
2020/12/08 01:42:16;;;;;;;32.85;17.98;;;;;;;3.46;100.00;100105.33;1853733;76;938827;-71
2020/12/08 01:44:49;;;;;;;30.43;16.53;;;;;;;3.39;100.00;100107.41;1865916;75;938986;-71
2020/12/08 01:47:19;;;;;;;29.52;18.30;;;;;;;3.33;100.00;100115.31;1833104;76;938789;-71
2020/12/08 01:49:49;;;;;;;33.97;18.80;;;;;;;3.29;100.00;100118.83;1866039;76;939079;-71
2020/12/08 01:52:21;;;;;;;29.52;17.87;;;;;;;3.35;100.00;100114.50;1832442;77;942592;-71
2020/12/08 01:54:53;;;;;;;28.10;17.80;;;;;;;3.35;100.00;100110.92;1865991;75;938693;-71
2020/12/08 01:57:22;;;;;;;31.62;17.98;;;;;;;3.39;100.00;100108.78;1833356;76;938726;-71
2020/12/08 01:59:52;;;;;;;27.37;17.83;;;;;;;3.54;100.00;100119.97;1865543;76;938714;-71
2020/12/08 02:02:24;;;;;;;34.03;18.77;;;;;;;3.68;100.00;100123.11;1833153;77;938799;-71
2020/12/08 02:04:54;;;;;;;29.13;17.10;;;;;;;3.75;100.00;100120.19;1866016;76;937162;-71
2020/12/08 02:07:24;;;;;;;32.28;19.42;;;;;;;3.76;100.00;100120.47;1853870;75;938830;-71
2020/12/08 02:09:54;;;;;;;30.70;18.20;;;;;;;3.79;100.00;100119.95;1844779;76;936906;-71
2020/12/08 02:12:24;;;;;;;29.42;18.40;;;;;;;3.85;100.00;100114.80;1853782;76;938728;-71
2020/12/08 02:14:54;;;;;;;30.93;18.60;;;;;;;3.81;100.00;100115.84;1843735;77;937031;-71
2020/12/08 02:17:24;;;;;;;33.37;17.70;;;;;;;3.87;100.00;100116.19;1853309;75;938800;-72
2020/12/08 02:19:57;;;;;;;30.70;17.90;;;;;;;3.73;100.00;100117.69;1843176;76;936848;-72
2020/12/08 02:22:26;;;;;;;33.38;18.62;;;;;;;3.82;100.00;100113.92;1853532;75;938713;-72
2020/12/08 02:24:56;;;;;;;32.87;19.00;;;;;;;3.78;100.00;100116.37;1845386;77;936773;-72
2020/12/08 02:27:26;;;;;;;31.05;16.95;;;;;;;3.83;100.00;100112.30;1854100;76;938759;-72
2020/12/08 02:29:56;;;;;;;30.53;18.10;;;;;;;3.92;100.00;100103.89;1844925;76;936803;-72
2020/12/08 02:32:27;;;;;;;30.88;17.70;;;;;;;3.74;100.00;100106.98;1852798;76;939097;-72
2020/12/08 02:34:57;;;;;;;29.57;17.00;;;;;;;3.83;100.00;100105.44;1845407;76;936794;-72
2020/12/08 02:37:27;;;;;;;32.23;18.07;;;;;;;3.81;100.00;100096.61;1854085;75;938764;-73
2020/12/08 02:39:56;;;;;;;29.33;17.47;;;;;;;3.76;100.00;100093.84;1866181;75;936805;-71
2020/12/08 02:42:26;;;;;;;29.73;17.53;;;;;;;3.60;100.00;100100.23;1831305;76;938754;-72
2020/12/08 02:44:58;;;;;;;31.47;18.47;;;;;;;3.49;100.00;100105.34;1866235;75;936821;-71
2020/12/08 02:47:27;;;;;;;26.17;17.20;;;;;;;3.51;100.00;100102.61;1832062;76;938761;-72
2020/12/08 02:49:57;;;;;;;28.73;16.13;;;;;;;3.49;100.00;100110.83;1865902;75;936833;-72
2020/12/08 02:52:27;;;;;;;28.90;17.33;;;;;;;3.45;100.00;100114.64;1831686;76;938720;-71
2020/12/08 02:54:57;;;;;;;29.47;17.37;;;;;;;3.45;100.00;100121.50;1865982;75;936777;-72
2020/12/08 02:57:27;;;;;;;29.13;16.90;;;;;;;3.54;100.00;100132.31;1831639;77;938756;-72
2020/12/08 02:59:56;;;;;;;27.43;17.73;;;;;;;3.63;100.00;100128.03;1866001;76;937163;-71
2020/12/08 03:02:27;;;;;;;28.87;17.33;;;;;;;3.80;100.00;100138.09;1832953;76;938899;-71
2020/12/08 03:04:56;;;;;;;32.93;18.87;;;;;;;3.73;100.00;100139.66;1865926;75;936788;-71
2020/12/08 03:07:26;;;;;;;32.40;18.17;;;;;;;3.69;100.00;100139.88;1853849;75;938719;-71
2020/12/08 03:09:56;;;;;;;31.17;17.57;;;;;;;3.59;100.00;100141.16;1845940;76;936850;-71
2020/12/08 03:12:26;;;;;;;32.00;18.53;;;;;;;3.47;100.00;100136.32;1853725;75;938877;-71
2020/12/08 03:14:56;;;;;;;30.43;17.67;;;;;;;3.55;100.00;100144.13;1844923;76;937242;-71
2020/12/08 03:17:26;;;;;;;30.75;17.70;;;;;;;3.56;100.00;100138.91;1853801;75;938718;-71
2020/12/08 03:19:56;;;;;;;30.50;18.10;;;;;;;3.44;100.00;100145.91;1845424;76;937011;-71
2020/12/08 03:22:25;;;;;;;31.90;18.57;;;;;;;3.41;100.00;100145.59;1853506;76;938798;-71
2020/12/08 03:24:55;;;;;;;30.97;17.33;;;;;;;3.30;100.00;100149.28;1843923;76;937079;-71
2020/12/08 03:27:25;;;;;;;30.72;16.77;;;;;;;3.32;100.00;100144.38;1853888;75;938783;-72
2020/12/08 03:29:55;;;;;;;30.37;17.67;;;;;;;3.23;100.00;100156.88;1865469;76;937125;-72
2020/12/08 03:32:25;;;;;;;28.50;16.32;;;;;;;3.18;100.00;100150.24;1832241;77;939153;-71
2020/12/08 03:34:54;;;;;;;30.67;18.90;;;;;;;3.21;100.00;100157.95;1865845;75;936989;-71
2020/12/08 03:37:24;;;;;;;29.07;17.65;;;;;;;3.18;100.00;100165.34;1833066;76;938694;-71
2020/12/08 03:39:54;;;;;;;29.60;17.43;;;;;;;3.56;100.00;100163.08;1865646;76;937003;-72
2020/12/08 03:42:24;;;;;;;31.02;18.48;;;;;;;3.63;100.00;100165.64;1853882;75;938773;-71
2020/12/08 03:44:54;;;;;;;32.17;18.10;;;;;;;3.58;100.00;100158.72;1866497;76;936691;-71
2020/12/08 03:47:23;;;;;;;31.80;17.97;;;;;;;3.37;100.00;100163.13;1832174;77;938657;-71
2020/12/08 03:49:53;;;;;;;32.00;18.35;;;;;;;3.64;100.00;100161.79;1865792;75;937068;-72
2020/12/08 03:52:23;;;;;;;36.65;19.70;;;;;;;3.72;100.00;100157.24;1854404;75;938701;-71
2020/12/08 03:54:53;;;;;;;30.83;19.03;;;;;;;3.78;100.00;100163.06;1845057;76;938719;-72
2020/12/08 03:57:23;;;;;;;34.33;19.73;;;;;;;3.75;100.00;100159.47;1853569;75;938690;-71
2020/12/08 03:59:52;;;;;;;33.83;19.03;;;;;;;3.78;100.00;100155.36;1845217;76;938660;-71
2020/12/08 04:02:22;;;;;;;33.80;19.40;;;;;;;3.79;100.00;100160.61;1853173;76;938717;-71
2020/12/08 04:04:52;;;;;;;35.87;19.53;;;;;;;3.78;100.00;100162.23;1866284;75;938720;-71
2020/12/08 04:07:22;;;;;;;34.93;19.10;;;;;;;3.78;100.00;100160.85;1832739;77;938638;-71
2020/12/08 04:09:52;;;;;;;36.30;19.03;;;;;;;3.81;100.00;100165.28;1865939;76;938711;-71
2020/12/08 04:12:21;;;;;;;38.58;20.55;;;;;;;3.74;100.00;100158.34;1853916;75;938909;-71
2020/12/08 04:14:51;;;;;;;38.20;19.97;;;;;;;3.73;100.00;100164.91;1866067;75;938726;-71
2020/12/08 04:17:22;;;;;;;41.63;19.90;;;;;;;3.71;100.00;100172.05;1853119;75;938602;-71
2020/12/08 04:19:52;;;;;;;38.93;19.27;;;;;;;3.61;100.00;100174.12;1866000;76;938648;-71
2020/12/08 04:22:22;;;;;;;45.38;20.60;;;;;;;3.54;100.00;100169.92;1833207;76;938835;-71
2020/12/08 04:24:52;;;;;;;45.37;20.70;;;;;;;3.49;100.00;100178.09;1865255;76;938848;-71
2020/12/08 04:27:21;;;;;;;40.40;20.15;;;;;;;3.53;100.00;100177.33;1853688;76;938717;-71
2020/12/08 04:29:51;;;;;;;43.50;19.63;;;;;;;3.39;100.00;100192.51;1865860;76;938793;-71
2020/12/08 04:32:21;;;;;;;41.95;19.73;;;;;;;3.39;100.00;100192.51;1832356;77;938952;-71
2020/12/08 04:34:51;;;;;;;38.40;18.83;;;;;;;3.25;100.00;100190.41;1866261;75;938738;-71
2020/12/08 04:37:21;;;;;;;43.83;21.17;;;;;;;3.32;100.00;100193.25;1853646;75;938652;-71
2020/12/08 04:39:51;;;;;;;44.63;20.60;;;;;;;3.31;100.00;100193.48;1866244;75;938667;-71
2020/12/08 04:42:20;;;;;;;47.27;21.85;;;;;;;3.40;100.00;100196.08;1833212;77;938796;-71
2020/12/08 04:44:51;;;;;;;42.67;18.92;;;;;;;3.31;100.00;100200.34;1865553;76;938747;-71
2020/12/08 04:47:22;;;;;;;40.05;19.27;;;;;;;3.34;100.00;100203.98;1853399;76;938831;-71
2020/12/08 04:49:54;;;;;;;49.98;20.23;;;;;;;3.24;100.00;100203.30;1845210;76;939470;-71
2020/12/08 04:52:24;;;;;;;39.42;19.27;;;;;;;3.12;100.00;100210.23;1853737;75;938778;-72
2020/12/08 04:54:54;;;;;;;41.87;17.77;;;;;;;3.12;100.00;100206.69;1842251;76;936921;-72
2020/12/08 04:57:25;;;;;;;36.45;17.60;;;;;;;3.14;100.00;100208.62;1853730;75;938759;-71
2020/12/08 05:00:08;;;;;;;37.23;16.93;;;;;;;3.06;100.00;100211.27;1865813;75;937086;-71
2020/12/08 05:02:48;;;;;;;45.03;17.27;;;;;;;3.07;100.00;100211.55;1845003;76;938978;-71
2020/12/08 05:05:19;;;;;;;38.27;16.57;;;;;;;2.97;100.00;100220.16;1853799;75;938830;-72
2020/12/08 05:07:50;;;;;;;34.27;16.90;;;;;;;2.96;100.00;100219.86;1845413;76;938797;-72
2020/12/08 05:10:29;;;;;;;38.02;16.62;;;;;;;3.02;100.00;100228.47;1853722;75;938780;-71
2020/12/08 05:12:59;;;;;;;33.77;15.87;;;;;;;3.05;100.00;100228.80;1845004;77;936890;-72
2020/12/08 05:15:29;;;;;;;32.50;15.53;;;;;;;3.04;100.00;100226.29;1853378;75;938682;-72
2020/12/08 05:18:10;;;;;;;35.13;15.23;;;;;;;3.04;100.00;100227.66;1845398;76;936880;-71
2020/12/08 05:20:40;;;;;;;52.20;16.53;;;;;;;3.00;100.00;100229.25;1866044;75;938714;-71
2020/12/08 05:23:10;;;;;;;47.70;15.07;;;;;;;2.89;100.00;100236.50;1833107;76;938777;-71
2020/12/08 05:25:40;;;;;;;39.30;16.43;;;;;;;2.69;100.00;100241.66;1865770;75;938663;-71
2020/12/08 05:28:12;;;;;;;35.60;15.80;;;;;;;2.84;100.00;100246.55;1833250;77;938816;-71
2020/12/08 05:30:47;;;;;;;49.10;16.20;;;;;;;2.94;100.00;100245.36;1866009;75;938753;-71
2020/12/08 05:33:18;;;;;;;39.40;14.33;;;;;;;2.87;100.00;100244.70;1853678;75;938668;-71
2020/12/08 05:35:50;;;;;;;37.98;14.75;;;;;;;2.75;100.00;100246.97;1845038;76;938888;-71
2020/12/08 05:38:22;;;;;;;40.07;15.17;;;;;;;2.80;100.00;100239.37;1853850;75;938717;-72
2020/12/08 05:40:55;;;;;;;44.63;15.73;;;;;;;2.78;100.00;100242.08;1845428;76;938967;-71
2020/12/08 05:43:28;;;;;;;26.95;13.88;;;;;;;2.78;100.00;100247.56;1854848;75;938842;-71
2020/12/08 05:45:59;;;;;;;34.73;14.20;;;;;;;2.85;100.00;100255.08;1865994;76;936906;-71
2020/12/08 05:48:31;;;;;;;38.60;14.20;;;;;;;2.67;100.00;100258.34;1833188;77;938691;-71
2020/12/08 05:51:03;;;;;;;33.37;13.23;;;;;;;2.70;100.00;100261.13;1866271;75;936946;-71
2020/12/08 05:53:33;;;;;;;48.60;15.23;;;;;;;2.74;100.00;100260.38;1845104;76;938996;-71
2020/12/08 05:56:07;;;;;;;27.53;13.73;;;;;;;2.59;100.00;100269.73;1866164;75;936822;-71
2020/12/08 05:58:37;;;;;;;31.23;12.47;;;;;;;2.81;100.00;100270.37;1845493;76;938658;-71
2020/12/08 06:01:09;;;;;;;27.73;12.82;;;;;;;2.64;100.00;100267.62;1864522;76;938713;-71
2020/12/08 06:03:39;;;;;;;32.97;11.73;;;;;;;2.54;100.00;100263.31;1866139;75;938716;-72
2020/12/08 06:06:11;;;;;;;33.77;12.27;;;;;;;2.61;100.00;100275.78;1833121;77;938783;-72
2020/12/08 06:08:45;;;;;;;25.00;11.57;;;;;;;2.48;100.00;100271.17;1865471;76;938924;-71
2020/12/08 06:11:17;;;;;;;38.20;13.80;;;;;;;2.55;100.00;100269.93;1832772;76;938710;-71
2020/12/08 06:13:49;;;;;;;35.80;11.90;;;;;;;2.43;100.00;100271.91;1865860;75;938716;-71
2020/12/08 06:16:22;;;;;;;25.45;12.33;;;;;;;2.46;100.00;100271.94;1832494;76;938858;-72
2020/12/08 06:18:52;;;;;;;32.97;12.53;;;;;;;2.50;100.00;100275.84;1865730;75;939114;-72
2020/12/08 06:21:24;;;;;;;70.08;15.32;;;;;;;2.47;100.00;100270.87;1833341;76;938696;-72
2020/12/08 06:23:56;;;;;;;25.87;11.67;;;;;;;2.38;100.00;100272.34;1865371;76;936994;-72
2020/12/08 06:26:27;;;;;;;40.88;13.32;;;;;;;2.48;100.00;100282.13;1833501;76;938931;-72
2020/12/08 06:28:58;;;;;;;35.60;12.20;;;;;;;2.43;100.00;100288.35;1866029;76;937078;-72
2020/12/08 06:31:28;;;;;;;30.73;11.40;;;;;;;2.16;100.00;100271.66;1833217;76;938823;-72
2020/12/08 06:33:58;;;;;;;30.97;11.70;;;;;;;2.29;100.00;100278.22;1865843;75;936999;-71
2020/12/08 06:36:29;;;;;;;25.30;10.97;;;;;;;2.34;100.00;100276.66;1832374;77;938923;-72
2020/12/08 06:39:00;;;;;;;27.83;11.07;;;;;;;2.42;100.00;100288.05;1866094;75;937322;-72
2020/12/08 06:41:32;;;;;;;25.97;11.83;;;;;;;2.48;100.00;100288.42;1833253;76;938742;-71
2020/12/08 06:44:04;;;;;;;24.57;10.97;;;;;;;2.27;100.00;100295.43;1866164;75;937044;-72
2020/12/08 06:46:34;;;;;;;27.10;10.70;;;;;;;2.35;100.00;100288.75;1845138;76;938730;-71
2020/12/08 06:49:06;;;;;;;24.43;10.57;;;;;;;2.27;100.00;100289.95;1865936;75;936914;-71
2020/12/08 06:51:37;;;;;;;20.30;9.90;;;;;;;2.41;100.00;100297.87;1844216;76;938757;-71
2020/12/08 06:54:14;;;;;;;28.17;10.50;;;;;;;2.44;100.00;100295.47;1866052;76;934771;-71
2020/12/08 06:56:44;;;;;;;20.47;10.17;;;;;;;2.29;100.00;100302.88;1845198;76;938937;-71
2020/12/08 06:59:23;;;;;;;26.82;9.95;;;;;;;2.27;100.00;100298.70;1853731;75;938724;-71
2020/12/08 07:01:53;;;;;;;22.93;11.00;;;;;;;2.15;100.00;100312.98;1866088;75;934602;-71
2020/12/08 07:04:24;;;;;;;24.67;10.60;;;;;;;2.17;100.00;100316.33;1854282;76;938677;-71
2020/12/08 07:06:54;;;;;;;19.53;10.63;;;;;;;2.06;100.00;100317.18;1844695;76;937124;-72
2020/12/08 07:09:25;;;;;;;20.17;9.70;;;;;;;2.19;100.00;100315.00;1853781;75;938877;-71
2020/12/08 07:12:02;;;;;;;26.13;9.63;;;;;;;2.31;100.00;100325.11;1845730;76;934836;-71
2020/12/08 07:14:36;;;;;;;30.67;10.03;;;;;;;2.06;100.00;100321.29;1853478;75;936678;-72
2020/12/08 07:17:03;;;;;;;21.87;9.10;;;;;;;1.89;100.00;100321.22;1865590;75;936809;-71
2020/12/08 07:19:33;;;;;;;21.40;9.83;;;;;;;1.85;100.00;100320.03;1866031;75;935399;-71
2020/12/08 07:22:08;;;;;;;24.80;10.43;;;;;;;1.80;100.00;100319.92;1866084;75;934714;-71
2020/12/08 07:24:44;;;;;;;21.77;10.63;;;;;;;1.79;100.00;100317.75;1866253;75;938776;-72
2020/12/08 07:27:14;;;;;;;21.35;10.30;;;;;;;2.05;100.00;100325.97;1831716;77;938740;-72
2020/12/08 07:29:44;;;;;;;21.00;9.73;;;;;;;2.03;100.00;100330.00;1865828;75;938861;-73
2020/12/08 07:32:14;;;;;;;21.63;10.00;;;;;;;1.97;100.00;100336.46;1833333;76;937019;-72
2020/12/08 07:34:51;;;;;;;18.53;10.07;;;;;;;2.05;100.00;100336.92;1845338;76;938727;-72
2020/12/08 07:37:21;;;;;;;20.10;10.45;;;;;;;2.02;100.00;100344.23;1854046;75;938673;-72
2020/12/08 07:39:52;;;;;;;16.10;9.37;;;;;;;2.32;100.00;100358.25;1845472;76;938824;-73
2020/12/08 07:42:22;;;;;;;22.17;10.00;;;;;;;2.13;100.00;100368.04;1853434;75;936659;-72
2020/12/08 07:44:59;;;;;;;22.13;10.73;;;;;;;2.15;100.00;100373.26;1845346;76;938911;-72
2020/12/08 07:47:29;;;;;;;19.47;10.47;;;;;;;2.17;100.00;100384.28;1853783;76;938702;-72
2020/12/08 07:49:58;;;;;;;18.10;9.70;;;;;;;2.17;100.00;100384.28;1866046;75;935692;-72
2020/12/08 07:52:28;;;;;;;20.43;10.00;;;;;;;2.05;100.00;100389.50;1833405;76;936771;-77
2020/12/08 07:54:58;;;;;;;22.53;10.30;;;;;;;1.98;100.00;100390.98;1845450;76;936887;-72
2020/12/08 07:57:28;;;;;;;38.07;11.20;;;;;;;1.94;100.00;100387.05;1833202;76;938760;-71
2020/12/08 07:59:58;;;;;;;29.03;10.07;;;;;;;1.89;100.00;100399.26;1845359;76;936720;-71
2020/12/08 08:02:28;;;;;;;25.57;9.57;;;;;;;2.01;100.00;100397.91;1833181;76;939095;-72
2020/12/08 08:04:57;;;;;;;23.93;10.07;;;;;;;2.02;100.00;100400.91;1866007;75;934776;-72
2020/12/08 08:07:27;;;;;;;21.57;9.10;;;;;;;1.94;100.00;100394.44;1832695;76;938883;-72
2020/12/08 08:09:57;;;;;;;23.50;9.68;;;;;;;1.93;100.00;100398.23;1865725;75;934447;-72
2020/12/08 08:12:27;;;;;;;24.10;8.80;;;;;;;1.89;100.00;100397.89;1833455;76;936599;-72
2020/12/08 08:14:57;;;;;;;44.10;9.40;;;;;;;1.82;100.00;100398.03;1865802;75;934678;-72
2020/12/08 08:17:27;;;;;;;44.93;9.97;;;;;;;1.61;100.00;100395.89;1833166;77;936588;-71
2020/12/08 08:19:57;;;;;;;21.10;9.27;;;;;;;1.60;100.00;100401.06;1865933;75;934712;-73
2020/12/08 08:22:27;;;;;;;21.87;8.53;;;;;;;1.78;100.00;100405.06;1833328;76;936777;-72
2020/12/08 08:24:57;;;;;;;38.07;9.40;;;;;;;1.92;100.00;100405.65;1867149;75;934726;-72
2020/12/08 08:27:27;;;;;;;21.77;9.40;;;;;;;1.70;100.00;100404.58;1833276;77;936851;-72
2020/12/08 08:29:57;;;;;;;52.27;12.43;;;;;;;1.80;100.00;100399.32;1865428;75;934700;-72
2020/12/08 08:32:27;;;;;;;34.33;10.60;;;;;;;1.75;100.00;100408.81;1833312;76;938941;-73
2020/12/08 08:34:57;;;;;;;22.00;9.27;;;;;;;1.88;100.00;100418.69;1866033;75;936783;-71
2020/12/08 08:37:26;;;;;;;31.60;10.23;;;;;;;2.04;100.00;100418.79;1833247;75;936689;-71
2020/12/08 08:39:56;;;;;;;42.37;10.00;;;;;;;1.91;100.00;100418.20;1845367;76;936793;-72
2020/12/08 08:42:26;;;;;;;30.23;10.32;;;;;;;1.85;100.00;100422.72;1833665;76;938630;-72
2020/12/08 08:44:56;;;;;;;24.93;8.93;;;;;;;2.03;100.00;100418.48;1866060;75;936826;-74
2020/12/08 08:47:26;;;;;;;44.87;11.53;;;;;;;1.97;100.00;100409.04;1853603;75;935623;-74
2020/12/08 08:49:55;;;;;;;28.33;10.03;;;;;;;1.89;100.00;100418.96;1845448;76;936786;-74
2020/12/08 08:52:27;;;;;;;48.00;10.80;;;;;;;1.81;100.00;100431.95;1853918;75;938634;-74
2020/12/08 08:54:57;;;;;;;16.70;8.97;;;;;;;1.90;100.00;100434.33;1844921;76;936922;-74
2020/12/08 08:57:27;;;;;;;20.00;8.97;;;;;;;2.01;100.00;100441.16;1853604;75;936769;-74
2020/12/08 08:59:57;;;;;;;32.17;10.67;;;;;;;2.10;100.00;100448.48;1844459;76;934959;-74
2020/12/08 09:02:28;;;;;;;78.00;15.00;;;;;;;1.98;100.00;100443.55;1852913;75;938872;-74
2020/12/08 09:04:58;;;;;;;38.33;10.50;;;;;;;1.94;100.00;100447.84;1845348;76;936958;-74
2020/12/08 09:07:28;;;;;;;24.47;10.37;;;;;;;1.88;100.00;100443.33;1853903;75;938638;-74
2020/12/08 09:09:58;;;;;;;25.37;10.17;;;;;;;1.96;100.00;100433.39;1866408;75;936812;-74
2020/12/08 09:12:28;;;;;;;20.10;9.50;;;;;;;2.12;100.00;100436.22;1831585;76;938949;-74
2020/12/08 09:15:00;;;;;;;20.80;11.13;;;;;;;2.03;100.00;100436.82;1865453;76;934769;-71
2020/12/08 09:17:30;;;;;;;17.67;9.63;;;;;;;2.25;100.00;100439.24;1853399;75;938928;-71
2020/12/08 09:19:59;;;;;;;18.60;10.40;;;;;;;2.31;100.00;100447.05;1845677;76;934763;-71
2020/12/08 09:22:29;;;;;;;21.27;10.90;;;;;;;2.11;100.00;100447.41;1833033;76;938976;-71
2020/12/08 09:25:00;;;;;;;21.30;11.30;;;;;;;2.05;100.00;100450.59;1845323;76;937083;-71
2020/12/08 09:27:29;;;;;;;18.00;10.20;;;;;;;2.11;100.00;100450.15;1833135;76;938892;-71
2020/12/08 09:29:59;;;;;;;19.57;9.57;;;;;;;2.12;100.00;100457.30;1866225;75;936859;-72
2020/12/08 09:32:29;;;;;;;21.03;11.97;;;;;;;2.02;100.00;100466.64;1833362;76;936598;-72
2020/12/08 09:35:00;;;;;;;19.30;11.30;;;;;;;2.13;100.00;100457.08;1865851;76;936745;-72
2020/12/08 09:37:30;;;;;;;19.03;9.70;;;;;;;2.16;100.00;100457.95;1833064;77;938740;-73
2020/12/08 09:40:00;;;;;;;15.07;8.83;;;;;;;2.20;100.00;100454.19;1866065;75;934714;-72
2020/12/08 09:42:30;;;;;;;13.90;8.93;;;;;;;2.16;100.00;100455.22;1833217;76;936649;-76
2020/12/08 09:45:00;;;;;;;14.87;8.43;;;;;;;2.22;100.00;100457.55;1866058;76;934656;-72
2020/12/08 09:47:29;;;;;;;14.00;9.20;;;;;;;2.39;100.00;100462.58;1833342;76;936686;-72
2020/12/08 09:49:59;;;;;;;14.90;9.00;;;;;;;2.27;100.00;100460.37;1865939;76;934871;-72
2020/12/08 09:52:30;;;;;;;13.93;9.50;;;;;;;2.31;100.00;100461.55;1853696;75;936614;-72
2020/12/08 09:55:00;;;;;;;15.97;9.40;;;;;;;2.43;100.00;100465.13;1845526;76;935489;-72
2020/12/08 09:57:30;;;;;;;16.83;9.83;;;;;;;2.37;100.00;100463.87;1853680;75;936787;-71
2020/12/08 10:00:00;;;;;;;15.27;9.60;;;;;;;2.32;100.00;100472.81;1844624;76;934784;-73
2020/12/08 10:02:30;;;;;;;16.93;10.73;;;;;;;2.67;100.00;100465.36;1854059;75;936835;-73
2020/12/08 10:04:59;;;;;;;14.97;10.03;;;;;;;2.42;100.00;100468.94;1844239;77;937013;-72
2020/12/08 10:07:29;;;;;;;17.80;9.73;;;;;;;2.42;100.00;100462.62;1853651;75;938795;-73
2020/12/08 10:09:59;;;;;;;20.83;11.57;;;;;;;2.56;100.00;100472.25;1865775;75;934821;-72
2020/12/08 10:12:29;;;;;;;19.03;10.70;;;;;;;2.70;100.00;100477.73;1833006;76;938729;-72
2020/12/08 10:14:59;;;;;;;19.80;11.13;;;;;;;2.82;100.00;100477.73;1866071;75;936876;-73
2020/12/08 10:17:29;;;;;;;21.57;11.23;;;;;;;2.83;100.00;100475.25;1853730;76;938841;-73
2020/12/08 10:19:58;;;;;;;21.47;11.20;;;;;;;2.69;100.00;100481.05;1866077;75;936861;-73
2020/12/08 10:22:28;;;;;;;18.37;10.70;;;;;;;2.65;100.00;100478.47;1831635;76;939016;-72
2020/12/08 10:24:58;;;;;;;21.10;11.27;;;;;;;2.65;100.00;100487.26;1866181;75;937090;-72
2020/12/08 10:27:28;;;;;;;23.93;12.23;;;;;;;2.82;100.00;100488.16;1832938;77;938706;-72
2020/12/08 10:29:58;;;;;;;21.10;11.17;;;;;;;2.78;100.00;100483.41;1866154;75;936964;-72
2020/12/08 10:32:27;;;;;;;22.57;12.53;;;;;;;2.72;100.00;100487.41;1833291;76;938640;-72
2020/12/08 10:34:57;;;;;;;23.27;11.93;;;;;;;2.79;100.00;100483.67;1865955;76;936724;-72
2020/12/08 10:37:28;;;;;;;24.00;13.53;;;;;;;3.01;100.00;100486.05;1852948;76;939233;-72
2020/12/08 10:39:57;;;;;;;20.77;11.57;;;;;;;3.12;100.00;100489.30;1845349;77;936844;-72
2020/12/08 10:42:28;;;;;;;25.20;13.43;;;;;;;2.96;100.00;100489.52;1853309;75;938723;-72
2020/12/08 10:44:58;;;;;;;23.93;13.60;;;;;;;2.98;100.00;100479.69;1845357;77;936793;-73
2020/12/08 10:47:28;;;;;;;24.40;13.33;;;;;;;2.80;100.00;100482.08;1853675;75;937904;-73
2020/12/08 10:49:58;;;;;;;22.02;13.43;;;;;;;2.87;100.00;100487.44;1845414;76;936806;-72
2020/12/08 10:52:30;;;;;;;23.83;13.60;;;;;;;2.92;100.00;100486.98;1854001;75;938711;-72
2020/12/08 10:55:00;;;;;;;23.07;12.80;;;;;;;2.64;100.00;100491.06;1845574;76;936919;-71
2020/12/08 10:57:29;;;;;;;26.10;13.90;;;;;;;2.61;100.00;100481.39;1853816;76;937527;-72
2020/12/08 11:00:00;;;;;;;21.67;13.60;;;;;;;2.60;100.00;100479.75;1845000;77;936963;-72
2020/12/08 11:02:30;;;;;;;27.57;14.00;;;;;;;2.69;100.00;100479.67;1853643;75;938778;-71
2020/12/08 11:05:03;;;;;;;23.70;14.23;;;;;;;2.77;100.00;100477.08;1866085;75;936744;-72
2020/12/08 11:07:31;;;;;;;23.17;14.30;;;;;;;2.90;100.00;100471.84;1853617;75;938821;-71
2020/12/08 11:10:01;;;;;;;25.87;14.63;;;;;;;2.82;100.00;100478.56;1844926;76;936763;-72
2020/12/08 11:12:31;;;;;;;24.97;14.77;;;;;;;3.18;100.00;100474.05;1853260;75;938644;-72
2020/12/08 11:15:01;;;;;;;21.80;13.13;;;;;;;3.33;100.00;100471.30;1844992;76;936774;-72
2020/12/08 11:17:32;;;;;;;22.07;13.50;;;;;;;3.32;100.00;100469.62;1853754;75;938665;-72